Estación de Casa Rosada

Ultimos registro cada 15 minutos 25
Estación Fecha / Hora Temperatura Humedad Lluvia Velocidad Dirección Radiación Presion
25 Casa Rosada 06-09-2026 06:00 9,8 66 0 0 167 0 1009,2
24 Casa Rosada 06-09-2026 05:45 9,8 66 0 0 167 0 1009,2
23 Casa Rosada 06-09-2026 05:30 10,1 65 0 0,9 162 0 1009,1
22 Casa Rosada 06-09-2026 05:15 10,2 65 0 0,9 177 0 1008,9
21 Casa Rosada 06-09-2026 05:00 10,4 65 0 0,4 167 0 1008,7
20 Casa Rosada 06-09-2026 04:45 10,4 65 0 0,4 167 0 1008,7
19 Casa Rosada 06-09-2026 04:30 10,6 65 0 0,4 167 0 1008,7
18 Casa Rosada 06-09-2026 04:15 10,9 65 0 0,4 183 0 1008,6
17 Casa Rosada 06-09-2026 04:00 11,2 65 0 1,3 167 0 1008,6
16 Casa Rosada 06-09-2026 03:45 11,2 65 0 1,3 167 0 1008,6
15 Casa Rosada 06-09-2026 03:30 11,6 64 0 0,9 181 0 1008,6
14 Casa Rosada 06-09-2026 03:15 11,6 64 0 0,9 167 0 1008,5
13 Casa Rosada 06-09-2026 03:00 11,6 65 0 0,9 177 0 1008,5
12 Casa Rosada 06-09-2026 02:45 11,6 65 0 0,9 177 0 1008,5
11 Casa Rosada 06-09-2026 02:30 12,1 64 0 0,4 167 0 1008,6
10 Casa Rosada 06-09-2026 02:15 12,4 63 0 0 158 0 1008,7
9 Casa Rosada 06-09-2026 02:00 13,3 62 0 0,9 172 0 1008,6
8 Casa Rosada 06-09-2026 01:45 13,3 62 0 0,9 172 0 1008,6
7 Casa Rosada 06-09-2026 01:30 13,4 62 0 0,9 172 0 1008,5
6 Casa Rosada 06-09-2026 01:15 13,6 62 0 0,9 167 0 1008,4
5 Casa Rosada 06-09-2026 01:00 15,9 57 0 0 141 0 1008,4
4 Casa Rosada 06-09-2026 00:45 15,9 57 0 0 141 0 1008,4
3 Casa Rosada 06-09-2026 00:30 16,6 55 0 0,4 137 0 1008,4
2 Casa Rosada 06-09-2026 00:15 16,8 54 0 0,4 149 0 1008,3
1 Casa Rosada 06-09-2026 00:00 18,6 49 0 0 27 0 1008,3